Log Lane Village, CO

9:39 AM MDT on October 23, 2014 (GMT -0600)
Fort Morgan | Change Station
CLOSE
Current Station
Personal Weather Station
Location: Fort Morgan, CO
Elevation: 4334 ft
Nearby Weather Stations

Elev 4334 ft 40.26 °N, 103.80 °W | Updated 1 second ago

Clear
Clear
51.0 °F
Feels Like 51.0 °F
N
0.0
Wind Variable Wind from West
Gusts 1.0 mph

Today
High -- | Low -- °F
--% Chance of Precip.
Yesterday
High -- | Low -- °F
Precip. -- in
7:14 AM 6:03 PM
Waning Crescent, 0% visible
Pressure 30.17 in
Visibility 10.0 miles
Clouds Clear
Dew Point 40 °F
Humidity 65%
Rainfall 0.00 in
Snow Depth Not available.
UV 1 out of 12
Pollen 2.50 out of 12
Air Quality Not available.
Flu Activity Sporadic
METAR KFMM 231515Z AUTO 24006KT 10SM CLR 09/03 A3017 RMK AO2 T00910026

More Conditions Fewer Conditions

Pressure 30.17 in
Visibility 10.0 miles
Clouds Clear
Dew Point 40 °F
Humidity 65%
Rainfall 0.00 in
Snow Depth Not available.
UV 1 out of 12
Pollen 2.50 out of 12
Air Quality Not available.
Flu Activity Sporadic
METAR KFMM 231515Z AUTO 24006KT 10SM CLR 09/03 A3017 RMK AO2 T00910026

More Conditions Fewer Conditions

10-Day Weather Forecast

Almanac

Astronomy

Oct. 23, 2014 Rise Set
Actual Time 7:14 AM MDT 6:03 PM MDT
Civil Twilight 6:46 AM MDT 6:31 PM MDT
Nautical Twilight 6:15 AM MDT 7:03 PM MDT
Astronomical Twilight 5:43 AM MDT 7:34 PM MDT
Moon 6:56 AM MDT 6:06 PM MDT
Length of Visible Light 11h 44m
Length of Day
10h 49m
Tomorrow will be 2m 28s shorter.
Waning Crescent, 0% of the Moon is Illuminated
Today
Waning Crescent
Oct 23
New
Oct 30
First Quarter
Nov 6
Full
Nov 14
Last Quarter

Today's Extremes

State Highs State Lows

Community

WunderPhotos

Upload Photos

1,764,285 photos uploaded!

Nearby

Snow Depth

Station Depth Elevation
Copeland Lake 1 in 8600 ft
Niwot 0 in 9910 ft
University Camp 1 in 10300 ft
Wild Basin 1 in 9560 ft
Lake Eldora 0 in 9700 ft

Earthquake Activity

City Distance Mag. Time & Date
No recent earthquake activity has been reported nearby.
Minimum magnitude displayed is 2.5.

Coastal Water Temperatures

Place Temperature
No Stations Reporting

Nearby Weather Stations